createdAt,value
2022-09-07T00:01:28.153Z,99.90
2022-09-07T00:06:34.610Z,99.90
2022-09-07T00:11:37.892Z,99.90
2022-09-07T00:16:42.707Z,99.90
2022-09-07T00:21:46.349Z,99.90
2022-09-07T00:26:49.639Z,99.90
2022-09-07T00:31:54.540Z,99.90
2022-09-07T00:36:57.830Z,99.90
2022-09-07T00:42:01.481Z,99.90
2022-09-07T00:47:07.481Z,99.90
2022-09-07T00:52:12.453Z,99.90
2022-09-07T00:57:15.950Z,99.90
2022-09-07T01:02:21.321Z,99.90
2022-09-07T01:07:25.166Z,99.90
2022-09-07T01:12:28.455Z,99.90
2022-09-07T01:17:46.678Z,99.90
2022-09-07T01:23:18.850Z,99.90
2022-09-07T01:28:26.594Z,99.90
2022-09-07T01:33:44.387Z,99.90
2022-09-07T01:38:49.284Z,99.90
2022-09-07T01:44:00.533Z,99.90
2022-09-07T01:49:10.912Z,99.90
2022-09-07T01:54:19.986Z,99.90
2022-09-07T01:59:30.792Z,99.90
2022-09-07T02:04:38.694Z,99.90
2022-09-07T02:09:48.517Z,99.90
2022-09-07T02:14:57.937Z,99.90
2022-09-07T02:20:07.946Z,99.90
2022-09-07T02:25:15.581Z,99.90
2022-09-07T02:30:20.282Z,99.90
2022-09-07T02:35:23.751Z,99.90
2022-09-07T02:40:27.110Z,99.90
2022-09-07T02:45:39.278Z,99.90
2022-09-07T02:51:03.700Z,99.90
2022-09-07T02:56:19.418Z,99.90
2022-09-07T03:01:33.238Z,99.90
2022-09-07T03:06:41.029Z,99.90
2022-09-07T03:11:44.392Z,99.90
2022-09-07T03:16:50.531Z,99.90
2022-09-07T03:21:53.869Z,99.90
2022-09-07T03:26:57.458Z,99.90
2022-09-07T03:32:02.121Z,99.90
2022-09-07T03:37:05.447Z,99.90
2022-09-07T03:42:08.949Z,99.90
2022-09-07T03:47:14.028Z,99.90
2022-09-07T03:52:17.317Z,99.90
2022-09-07T03:57:21.175Z,99.90
2022-09-07T04:02:25.905Z,99.90
2022-09-07T04:07:29.218Z,99.90
2022-09-07T04:12:32.539Z,99.90
2022-09-07T04:17:37.192Z,99.90
2022-09-07T04:22:40.511Z,99.90
2022-09-07T04:27:43.974Z,99.90
2022-09-07T04:32:49.172Z,99.90
2022-09-07T04:37:52.462Z,99.90
2022-09-07T04:42:55.738Z,99.90
2022-09-07T04:48:00.411Z,99.90
2022-09-07T04:53:03.658Z,99.90
2022-09-07T04:58:07.306Z,99.90
2022-09-07T05:03:12.168Z,99.90
2022-09-07T05:08:16.434Z,99.90
2022-09-07T05:13:19.799Z,99.90
2022-09-07T05:18:24.569Z,99.90
2022-09-07T05:23:27.895Z,99.90
2022-09-07T05:28:31.356Z,99.90
2022-09-07T05:39:00.728Z,99.90
2022-09-07T05:49:29.469Z,99.90
2022-09-07T05:54:32.735Z,99.90
2022-09-07T05:59:36.273Z,99.90
2022-09-07T06:04:40.903Z,99.90
2022-09-07T06:15:08.684Z,99.90
2022-09-07T06:20:14.006Z,99.90
2022-09-07T06:25:17.408Z,99.90
2022-09-07T06:30:20.978Z,99.90
2022-09-07T06:35:26.044Z,99.90
2022-09-07T06:40:29.418Z,99.90
2022-09-07T06:45:32.705Z,99.90
2022-09-07T06:50:37.446Z,99.90
2022-09-07T06:55:45.007Z,99.90
2022-09-07T07:00:48.458Z,99.90
2022-09-07T07:05:54.771Z,99.90
2022-09-07T07:11:02.288Z,99.90
2022-09-07T07:16:07.231Z,99.90
2022-09-07T07:21:13.336Z,99.90
2022-09-07T07:26:18.971Z,99.90
2022-09-07T07:31:24.975Z,99.90
2022-09-07T07:36:29.622Z,99.90
2022-09-07T07:46:57.160Z,99.90
2022-09-07T07:57:25.463Z,99.90
2022-09-07T08:02:29.007Z,99.90
2022-09-07T08:07:33.629Z,99.90
2022-09-07T08:12:37.152Z,99.90
2022-09-07T08:17:40.894Z,99.90
2022-09-07T08:22:45.492Z,99.90
2022-09-07T08:27:48.940Z,99.90
2022-09-07T08:32:52.250Z,99.90
2022-09-07T08:37:56.897Z,99.90
2022-09-07T08:43:10.945Z,99.90
2022-09-07T08:48:18.508Z,99.90
2022-09-07T08:53:25.149Z,99.90
2022-09-07T08:58:50.678Z,99.90
2022-09-07T09:09:28.068Z,99.90
2022-09-07T09:14:42.706Z,99.90
2022-09-07T09:20:00.291Z,99.90
2022-09-07T09:25:16.632Z,99.90
2022-09-07T09:30:21.405Z,99.90
2022-09-07T09:35:30.268Z,99.90
2022-09-07T09:40:36.477Z,99.90
2022-09-07T09:56:42.766Z,99.80
2022-09-07T10:07:22.056Z,96.70
2022-09-07T10:12:32.183Z,94.50
2022-09-07T10:17:37.736Z,90.90
2022-09-07T10:22:41.009Z,92.00
2022-09-07T10:27:46.859Z,91.80
2022-09-07T10:33:02.379Z,91.50
2022-09-07T10:38:16.285Z,90.70
2022-09-07T10:43:31.241Z,91.80
2022-09-07T10:48:42.065Z,91.80
2022-09-07T11:05:05.023Z,90.00
2022-09-07T11:10:17.345Z,87.10
2022-09-07T11:15:28.531Z,89.20
2022-09-07T11:20:35.582Z,86.10
2022-09-07T11:25:46.692Z,87.00
2022-09-07T11:31:00.268Z,86.40
2022-09-07T11:36:12.199Z,86.90
2022-09-07T11:41:25.597Z,86.00
2022-09-07T11:46:37.085Z,86.50
2022-09-07T11:51:44.058Z,87.60
2022-09-07T11:56:53.656Z,87.40
2022-09-07T12:02:16.998Z,84.70
2022-09-07T12:07:42.996Z,84.50
2022-09-07T12:13:07.899Z,81.40
2022-09-07T12:18:27.935Z,76.10
2022-09-07T12:23:32.646Z,76.90
2022-09-07T12:29:07.475Z,74.50
2022-09-07T12:34:47.447Z,70.80
2022-09-07T12:39:50.753Z,76.10
2022-09-07T12:45:38.385Z,73.20
2022-09-07T12:50:51.437Z,65.10
2022-09-07T12:56:17.458Z,68.00
2022-09-07T13:01:38.305Z,68.80
2022-09-07T13:07:06.979Z,61.70
2022-09-07T13:17:57.354Z,64.60
2022-09-07T13:23:24.580Z,62.80
2022-09-07T13:28:37.205Z,62.20
2022-09-07T13:33:47.482Z,63.60
2022-09-07T13:38:53.094Z,64.40
2022-09-07T13:44:00.821Z,61.70
2022-09-07T13:49:14.134Z,62.00
2022-09-07T13:54:27.675Z,59.70
2022-09-07T13:59:34.960Z,59.30
2022-09-07T14:04:41.404Z,57.90
2022-09-07T14:09:46.007Z,59.10
2022-09-07T14:15:09.489Z,59.20
2022-09-07T14:20:15.636Z,58.60
2022-09-07T14:25:22.240Z,56.70
2022-09-07T14:30:29.215Z,51.70
2022-09-07T14:35:35.348Z,54.30
2022-09-07T14:40:40.274Z,53.90
2022-09-07T14:45:43.674Z,51.40
2022-09-07T14:51:01.028Z,54.00
2022-09-07T14:56:20.899Z,53.50
2022-09-07T15:01:41.566Z,54.00
2022-09-07T15:07:02.306Z,48.20
2022-09-07T15:12:38.365Z,52.60
2022-09-07T15:17:43.857Z,54.10
2022-09-07T15:22:47.431Z,53.30
2022-09-07T15:27:52.445Z,57.60
2022-09-07T15:32:57.304Z,55.50
2022-09-07T15:38:02.368Z,52.30
2022-09-07T15:43:19.902Z,47.10
2022-09-07T15:48:25.631Z,52.70
2022-09-07T15:58:57.864Z,53.00
2022-09-07T16:04:01.710Z,54.20
2022-09-07T16:09:07.814Z,52.90
2022-09-07T16:14:13.778Z,51.20
2022-09-07T16:19:20.531Z,52.20
2022-09-07T16:24:24.180Z,51.80
2022-09-07T16:29:28.977Z,53.00
2022-09-07T16:34:32.243Z,53.10
2022-09-07T16:39:35.729Z,54.70
2022-09-07T16:44:40.423Z,55.50
2022-09-07T16:49:43.715Z,54.90
2022-09-07T16:54:47.086Z,56.50
2022-09-07T16:59:51.716Z,58.30
2022-09-07T17:04:54.945Z,60.10
2022-09-07T17:09:58.286Z,60.80
2022-09-07T17:15:03.146Z,62.30
2022-09-07T17:20:08.240Z,64.20
2022-09-07T17:25:14.032Z,65.50
2022-09-07T17:30:20.823Z,68.00
2022-09-07T17:35:26.248Z,70.90
2022-09-07T17:40:29.899Z,72.60
2022-09-07T17:45:36.642Z,71.90
2022-09-07T17:50:39.997Z,75.10
2022-09-07T17:55:46.076Z,75.60
2022-09-07T18:00:51.055Z,76.70
2022-09-07T18:05:55.209Z,77.10
2022-09-07T18:16:32.653Z,78.60
2022-09-07T18:21:38.134Z,80.40
2022-09-07T18:26:41.686Z,82.90
2022-09-07T18:31:46.397Z,83.80
2022-09-07T18:36:50.006Z,84.50
2022-09-07T18:41:54.507Z,85.70
2022-09-07T18:46:59.187Z,86.60
2022-09-07T18:57:25.956Z,87.60
2022-09-07T19:02:31.125Z,87.40
2022-09-07T19:07:34.456Z,88.00
2022-09-07T19:12:37.691Z,89.10
2022-09-07T19:17:42.283Z,90.60
2022-09-07T19:22:45.662Z,91.50
2022-09-07T19:27:48.907Z,92.30
2022-09-07T19:32:53.506Z,92.30
2022-09-07T19:37:56.944Z,92.60
2022-09-07T19:43:00.229Z,93.70
2022-09-07T19:48:05.003Z,94.40
2022-09-07T19:53:08.309Z,95.60
2022-09-07T19:58:12.284Z,96.20
2022-09-07T20:03:16.880Z,97.50
2022-09-07T20:08:20.104Z,97.40
2022-09-07T20:13:23.422Z,96.10
2022-09-07T20:18:28.559Z,96.30
2022-09-07T20:23:31.900Z,96.00
2022-09-07T20:28:35.925Z,96.30
2022-09-07T20:33:41.586Z,97.20
2022-09-07T20:38:46.611Z,97.00
2022-09-07T20:43:50.220Z,97.30
2022-09-07T20:48:54.867Z,97.00
2022-09-07T20:53:58.717Z,97.00
2022-09-07T20:59:03.858Z,97.50
2022-09-07T21:04:08.531Z,98.00
2022-09-07T21:09:11.753Z,98.20
2022-09-07T21:14:15.607Z,98.50
2022-09-07T21:19:20.292Z,99.90
2022-09-07T21:24:24.656Z,99.90
2022-09-07T21:29:27.859Z,99.90
2022-09-07T21:34:32.483Z,99.90
2022-09-07T21:39:35.818Z,99.90
2022-09-07T21:44:39.085Z,99.90
2022-09-07T21:49:44.636Z,99.90
2022-09-07T21:54:47.989Z,99.90
2022-09-07T21:59:51.298Z,99.90
2022-09-07T22:04:56.886Z,99.90
2022-09-07T22:10:01.497Z,99.90
2022-09-07T22:15:05.209Z,99.90
2022-09-07T22:20:11.977Z,99.90
2022-09-07T22:25:15.427Z,99.90
2022-09-07T22:30:18.791Z,99.90
2022-09-07T22:35:25.619Z,99.90
2022-09-07T22:40:28.858Z,99.90
2022-09-07T22:45:32.122Z,99.90
2022-09-07T22:50:36.687Z,99.90
2022-09-07T22:55:40.197Z,99.90
2022-09-07T23:00:45.215Z,99.90
2022-09-07T23:05:49.841Z,99.90
2022-09-07T23:10:53.322Z,99.90
2022-09-07T23:15:56.619Z,99.90
2022-09-07T23:21:01.602Z,99.90
2022-09-07T23:26:05.504Z,99.90
2022-09-07T23:31:11.779Z,99.90
2022-09-07T23:36:17.374Z,99.90
2022-09-07T23:41:20.681Z,99.90
2022-09-07T23:46:24.141Z,99.90
2022-09-07T23:51:28.822Z,99.90
2022-09-07T23:56:32.749Z,99.90
